createdAt,value
2018-06-01T00:01:22.770Z,17.55
2018-06-01T00:03:48.793Z,17.57
2018-06-01T00:06:14.796Z,17.50
2018-06-01T00:08:41.010Z,17.51
2018-06-01T00:11:07.023Z,17.46
2018-06-01T00:13:34.011Z,17.50
2018-06-01T00:16:00.050Z,17.46
2018-06-01T00:18:26.080Z,17.42
2018-06-01T00:20:52.152Z,17.42
2018-06-01T00:23:18.202Z,17.34
2018-06-01T00:25:44.231Z,17.31
2018-06-01T00:28:10.250Z,17.36
2018-06-01T00:30:36.262Z,17.28
2018-06-01T00:33:02.325Z,17.26
2018-06-01T00:35:28.316Z,17.28
2018-06-01T00:37:54.330Z,17.28
2018-06-01T00:40:20.410Z,17.28
2018-06-01T00:42:46.458Z,17.16
2018-06-01T00:45:12.486Z,17.16
2018-06-01T00:47:38.492Z,17.13
2018-06-01T00:50:04.800Z,17.22
2018-06-01T00:52:30.838Z,17.22
2018-06-01T00:55:09.047Z,17.24
2018-06-01T00:57:35.137Z,17.20
2018-06-01T01:00:01.176Z,17.22
2018-06-01T01:02:27.196Z,17.23
2018-06-01T01:04:53.834Z,17.17
2018-06-01T01:07:19.827Z,17.20
2018-06-01T01:09:45.963Z,17.16
2018-06-01T01:12:12.033Z,17.15
2018-06-01T01:14:38.049Z,17.12
2018-06-01T01:17:04.051Z,17.12
2018-06-01T01:19:30.075Z,17.09
2018-06-01T01:21:56.067Z,17.08
2018-06-01T01:24:22.093Z,17.03
2018-06-01T01:26:48.137Z,17.00
2018-06-01T01:29:14.135Z,16.93
2018-06-01T01:31:40.134Z,17.00
2018-06-01T01:34:06.155Z,17.03
2018-06-01T01:36:32.187Z,17.02
2018-06-01T01:38:58.222Z,17.03
2018-06-01T01:41:24.245Z,17.08
2018-06-01T01:43:50.262Z,17.09
2018-06-01T01:46:16.267Z,17.10
2018-06-01T01:48:42.270Z,17.06
2018-06-01T01:51:08.309Z,17.03
2018-06-01T01:53:34.317Z,17.04
2018-06-01T01:56:00.342Z,17.04
2018-06-01T01:58:26.374Z,17.07
2018-06-01T02:00:52.383Z,17.09
2018-06-01T02:03:18.437Z,17.04
2018-06-01T02:05:44.444Z,17.04
2018-06-01T02:08:10.460Z,17.02
2018-06-01T02:10:36.496Z,17.06
2018-06-01T02:13:02.693Z,17.04
2018-06-01T02:15:28.755Z,17.07
2018-06-01T02:17:54.766Z,17.08
2018-06-01T02:20:20.789Z,17.02
2018-06-01T02:22:46.802Z,16.98
2018-06-01T02:25:12.850Z,16.97
2018-06-01T02:27:38.846Z,16.92
2018-06-01T02:30:04.851Z,16.87
2018-06-01T02:32:30.992Z,16.91
2018-06-01T02:34:57.007Z,16.88
2018-06-01T02:37:23.040Z,16.92
2018-06-01T02:39:49.056Z,16.86
2018-06-01T02:42:15.190Z,16.87
2018-06-01T02:44:41.724Z,16.78
2018-06-01T02:47:07.755Z,16.73
2018-06-01T02:49:33.771Z,16.73
2018-06-01T02:51:59.789Z,16.74
2018-06-01T02:54:25.954Z,16.64
2018-06-01T02:56:51.990Z,16.71
2018-06-01T02:59:18.011Z,16.74
2018-06-01T03:01:44.081Z,16.65
2018-06-01T03:04:10.138Z,16.65
2018-06-01T03:09:49.312Z,16.52
2018-06-01T03:12:15.417Z,16.59
2018-06-01T03:14:41.414Z,16.63
2018-06-01T03:17:07.424Z,16.63
2018-06-01T03:19:33.614Z,16.64
2018-06-01T03:21:59.688Z,16.62
2018-06-01T03:24:25.723Z,16.67
2018-06-01T03:26:51.758Z,16.61
2018-06-01T03:29:17.795Z,16.64
2018-06-01T03:31:43.856Z,16.68
2018-06-01T03:34:09.888Z,16.71
2018-06-01T03:36:35.925Z,16.73
2018-06-01T03:39:02.001Z,16.60
2018-06-01T03:41:28.016Z,16.64
2018-06-01T03:43:54.091Z,16.64
2018-06-01T03:46:20.105Z,16.68
2018-06-01T03:48:46.110Z,16.68
2018-06-01T03:51:12.114Z,16.73
2018-06-01T03:53:38.126Z,16.73
2018-06-01T03:56:04.200Z,16.80
2018-06-01T03:58:30.207Z,16.77
2018-06-01T04:00:56.236Z,16.81
2018-06-01T04:03:22.259Z,16.78
2018-06-01T04:05:48.267Z,16.86
2018-06-01T04:08:14.286Z,16.86
2018-06-01T04:10:40.269Z,16.88
2018-06-01T04:13:06.278Z,16.86
2018-06-01T04:15:32.342Z,16.92
2018-06-01T04:17:58.405Z,17.00
2018-06-01T04:20:24.442Z,17.01
2018-06-01T04:22:50.450Z,17.06
2018-06-01T04:25:16.489Z,17.07
2018-06-01T04:27:42.513Z,17.07
2018-06-01T04:30:08.541Z,17.12
2018-06-01T04:32:34.583Z,17.24
2018-06-01T04:35:00.603Z,17.29
2018-06-01T04:37:26.594Z,17.37
2018-06-01T04:39:52.633Z,17.42
2018-06-01T04:42:18.655Z,17.51
2018-06-01T04:44:44.669Z,17.49
2018-06-01T04:47:10.730Z,17.52
2018-06-01T04:49:36.746Z,17.59
2018-06-01T04:52:02.750Z,17.69
2018-06-01T04:54:28.765Z,17.71
2018-06-01T04:56:54.786Z,17.80
2018-06-01T04:59:20.885Z,17.91
2018-06-01T05:01:46.893Z,17.95
2018-06-01T05:04:12.916Z,17.99
2018-06-01T05:06:38.933Z,18.10
2018-06-01T05:09:05.187Z,18.20
2018-06-01T05:11:31.279Z,18.29
2018-06-01T05:13:57.437Z,18.36
2018-06-01T05:16:23.529Z,18.43
2018-06-01T05:18:49.566Z,18.43
2018-06-01T05:21:15.649Z,18.47
2018-06-01T05:23:41.763Z,18.59
2018-06-01T05:26:07.802Z,18.74
2018-06-01T05:28:33.807Z,18.79
2018-06-01T05:30:59.891Z,18.78
2018-06-01T05:33:25.939Z,18.81
2018-06-01T05:35:51.963Z,18.80
2018-06-01T05:38:17.978Z,18.91
2018-06-01T05:40:44.037Z,18.82
2018-06-01T05:43:10.051Z,18.93
2018-06-01T05:45:36.073Z,18.96
2018-06-01T05:48:02.099Z,19.01
2018-06-01T05:50:28.095Z,19.09
2018-06-01T05:52:54.136Z,19.13
2018-06-01T05:55:20.128Z,19.21
2018-06-01T05:57:46.154Z,19.23
2018-06-01T06:00:12.185Z,19.12
2018-06-01T06:02:38.204Z,19.33
2018-06-01T06:05:04.224Z,19.09
2018-06-01T06:07:30.217Z,18.97
2018-06-01T06:09:56.266Z,19.26
2018-06-01T06:12:22.314Z,19.40
2018-06-01T06:14:48.337Z,19.41
2018-06-01T06:17:14.337Z,19.72
2018-06-01T06:19:40.349Z,19.78
2018-06-01T06:22:06.366Z,19.60
2018-06-01T06:24:32.398Z,19.88
2018-06-01T06:26:58.401Z,19.97
2018-06-01T06:29:24.426Z,19.91
2018-06-01T06:31:50.426Z,19.60
2018-06-01T06:34:16.476Z,19.45
2018-06-01T06:36:42.528Z,19.74
2018-06-01T06:39:08.629Z,19.55
2018-06-01T06:41:34.642Z,19.53
2018-06-01T06:44:00.698Z,19.43
2018-06-01T06:46:26.729Z,19.66
2018-06-01T06:48:52.743Z,19.62
2018-06-01T06:51:18.819Z,19.57
2018-06-01T06:53:44.832Z,19.33
2018-06-01T06:56:10.923Z,19.51
2018-06-01T06:58:37.585Z,19.63
2018-06-01T07:01:03.613Z,19.52
2018-06-01T07:03:29.634Z,19.55
2018-06-01T07:05:55.682Z,19.63
2018-06-01T07:08:21.769Z,19.72
2018-06-01T07:10:47.795Z,19.79
2018-06-01T07:13:13.798Z,19.97
2018-06-01T07:15:40.326Z,19.88
2018-06-01T07:18:06.386Z,19.93
2018-06-01T07:20:32.440Z,20.07
2018-06-01T07:22:58.461Z,20.13
2018-06-01T07:25:24.482Z,20.04
2018-06-01T07:27:50.503Z,19.96
2018-06-01T07:30:16.525Z,20.24
2018-06-01T07:32:42.614Z,20.13
2018-06-01T07:35:08.634Z,20.45
2018-06-01T07:37:34.653Z,20.23
2018-06-01T07:40:00.671Z,20.61
2018-06-01T07:42:26.694Z,20.54
2018-06-01T07:44:52.737Z,20.48
2018-06-01T07:47:18.788Z,20.27
2018-06-01T07:49:44.862Z,20.12
2018-06-01T07:52:10.980Z,20.17
2018-06-01T07:54:37.014Z,20.41
2018-06-01T07:57:03.794Z,20.58
2018-06-01T07:59:29.803Z,20.81
2018-06-01T08:01:55.797Z,20.87
2018-06-01T08:04:22.346Z,20.82
2018-06-01T08:06:48.381Z,20.94
2018-06-01T08:09:14.444Z,21.22
2018-06-01T08:11:40.448Z,21.22
2018-06-01T08:14:06.459Z,21.13
2018-06-01T08:16:32.469Z,21.27
2018-06-01T08:18:58.489Z,22.30
2018-06-01T08:21:24.486Z,23.19
2018-06-01T08:23:50.488Z,23.02
2018-06-01T08:26:16.513Z,23.22
2018-06-01T08:28:42.523Z,23.00
2018-06-01T08:31:08.536Z,22.65
2018-06-01T08:33:34.537Z,23.16
2018-06-01T08:36:00.609Z,23.11
2018-06-01T08:38:26.608Z,23.19
2018-06-01T08:40:52.653Z,22.60
2018-06-01T08:43:18.716Z,22.46
2018-06-01T08:45:44.797Z,22.22
2018-06-01T08:48:10.885Z,21.92
2018-06-01T08:50:36.899Z,21.70
2018-06-01T08:53:02.890Z,21.56
2018-06-01T08:55:28.980Z,21.31
2018-06-01T08:57:55.037Z,21.59
2018-06-01T09:00:21.068Z,21.42
2018-06-01T09:02:47.123Z,21.41
2018-06-01T09:05:13.182Z,21.90
2018-06-01T09:07:39.368Z,21.84
2018-06-01T09:10:05.420Z,21.62
2018-06-01T09:12:31.465Z,21.55
2018-06-01T09:14:57.694Z,21.66
2018-06-01T09:17:24.727Z,21.67
2018-06-01T09:19:50.766Z,22.05
2018-06-01T09:22:16.875Z,21.44
2018-06-01T09:24:42.829Z,21.27
2018-06-01T09:27:08.864Z,21.63
2018-06-01T09:29:35.160Z,21.29
2018-06-01T09:32:01.259Z,21.31
2018-06-01T09:34:27.492Z,20.93
2018-06-01T09:36:53.509Z,20.96
2018-06-01T09:39:19.703Z,20.82
2018-06-01T09:41:45.859Z,21.06
2018-06-01T09:44:11.898Z,20.33
2018-06-01T09:46:37.965Z,19.72
2018-06-01T09:49:03.960Z,19.71
2018-06-01T09:51:30.101Z,20.41
2018-06-01T09:53:56.105Z,20.18
2018-06-01T09:56:22.121Z,20.09
2018-06-01T09:58:48.142Z,20.23
2018-06-01T10:01:14.235Z,20.55
2018-06-01T10:03:40.297Z,20.22
2018-06-01T10:06:06.334Z,20.23
2018-06-01T10:08:32.501Z,20.38
2018-06-01T10:10:58.554Z,20.15
2018-06-01T10:13:24.607Z,20.34
2018-06-01T10:15:50.677Z,20.75
2018-06-01T10:18:16.672Z,21.12
2018-06-01T10:20:42.663Z,21.38
2018-06-01T10:23:08.694Z,21.59
2018-06-01T10:25:34.717Z,21.37
2018-06-01T10:28:00.710Z,20.26
2018-06-01T10:30:26.719Z,19.82
2018-06-01T10:32:52.737Z,20.43
2018-06-01T10:35:18.762Z,21.06
2018-06-01T10:37:44.770Z,21.08
2018-06-01T10:40:11.131Z,20.64
2018-06-01T10:42:37.936Z,20.69
2018-06-01T10:45:03.934Z,20.56
2018-06-01T10:47:30.047Z,20.33
2018-06-01T10:49:56.065Z,20.71
2018-06-01T10:52:22.077Z,19.84
2018-06-01T10:54:48.142Z,19.09
2018-06-01T10:57:14.273Z,19.34
2018-06-01T10:59:40.327Z,19.54
2018-06-01T11:02:06.392Z,19.88
2018-06-01T11:04:32.511Z,19.45
2018-06-01T11:06:59.185Z,19.95
2018-06-01T11:09:25.213Z,19.66
2018-06-01T11:11:51.252Z,19.83
2018-06-01T11:14:17.346Z,20.28
2018-06-01T11:16:43.878Z,19.66
2018-06-01T11:19:09.933Z,20.25
2018-06-01T11:21:36.111Z,19.74
2018-06-01T11:24:02.102Z,19.69
2018-06-01T11:26:28.159Z,19.44
2018-06-01T11:28:54.161Z,19.91
2018-06-01T11:31:20.214Z,20.27
2018-06-01T11:33:46.245Z,20.35
2018-06-01T11:36:12.277Z,20.57
2018-06-01T11:38:38.295Z,21.01
2018-06-01T11:41:04.289Z,20.78
2018-06-01T11:43:30.302Z,21.07
2018-06-01T11:45:56.359Z,20.78
2018-06-01T11:48:22.350Z,19.77
2018-06-01T11:50:48.393Z,20.23
2018-06-01T11:53:14.395Z,19.88
2018-06-01T11:55:40.413Z,19.80
2018-06-01T11:58:06.427Z,20.09
2018-06-01T12:00:32.434Z,19.72
2018-06-01T12:02:58.449Z,19.88
2018-06-01T12:05:24.462Z,20.39
2018-06-01T12:07:50.462Z,20.55
2018-06-01T12:10:16.484Z,20.64
2018-06-01T12:12:42.497Z,20.59
2018-06-01T12:15:08.567Z,20.71
2018-06-01T12:17:34.594Z,19.88
2018-06-01T12:20:00.759Z,19.83
2018-06-01T12:22:26.799Z,20.05
2018-06-01T12:24:52.824Z,19.80
2018-06-01T12:27:18.955Z,19.77
2018-06-01T12:29:44.983Z,19.69
2018-06-01T12:32:10.994Z,19.35
2018-06-01T12:34:37.030Z,19.40
2018-06-01T12:37:03.146Z,19.29
2018-06-01T12:39:29.165Z,18.88
2018-06-01T12:41:55.179Z,18.86
2018-06-01T12:44:22.183Z,18.79
2018-06-01T12:46:48.199Z,18.41
2018-06-01T12:49:14.228Z,18.59
2018-06-01T12:51:40.236Z,18.84
2018-06-01T12:54:06.262Z,18.77
2018-06-01T12:56:32.292Z,18.36
2018-06-01T12:58:58.298Z,18.35
2018-06-01T13:01:24.349Z,17.80
2018-06-01T13:03:50.357Z,17.50
2018-06-01T13:06:16.355Z,17.51
2018-06-01T13:08:42.347Z,17.40
2018-06-01T13:11:08.365Z,17.29
2018-06-01T13:13:34.375Z,17.76
2018-06-01T13:16:00.369Z,17.87
2018-06-01T13:18:26.377Z,17.61
2018-06-01T13:20:52.376Z,17.71
2018-06-01T13:23:18.373Z,17.72
2018-06-01T13:25:44.361Z,17.68
2018-06-01T13:28:10.377Z,17.53
2018-06-01T13:30:36.397Z,17.37
2018-06-01T13:33:02.387Z,17.11
2018-06-01T13:35:28.559Z,17.02
2018-06-01T13:37:54.522Z,17.20
2018-06-01T13:40:20.547Z,16.75
2018-06-01T13:42:46.762Z,16.82
2018-06-01T13:45:12.838Z,17.14
2018-06-01T13:47:38.929Z,16.84
2018-06-01T13:50:04.925Z,16.86
2018-06-01T13:52:31.725Z,16.65
2018-06-01T13:54:57.854Z,16.77
2018-06-01T13:57:23.873Z,16.82
2018-06-01T13:59:49.897Z,17.22
2018-06-01T14:02:16.053Z,16.83
2018-06-01T14:04:42.127Z,17.10
2018-06-01T14:07:08.145Z,16.86
2018-06-01T14:09:34.217Z,16.87
2018-06-01T14:12:00.217Z,16.95
2018-06-01T14:14:26.232Z,16.79
2018-06-01T14:16:52.305Z,16.87
2018-06-01T14:19:18.364Z,16.60
2018-06-01T14:21:44.360Z,16.22
2018-06-01T14:24:10.378Z,16.37
2018-06-01T14:26:36.450Z,16.10
2018-06-01T14:29:02.410Z,16.19
2018-06-01T14:31:28.483Z,16.05
2018-06-01T14:33:54.554Z,16.17
2018-06-01T14:36:20.592Z,16.16
2018-06-01T14:38:46.610Z,15.95
2018-06-01T14:41:12.675Z,16.03
2018-06-01T14:43:38.709Z,15.90
2018-06-01T14:46:04.774Z,15.77
2018-06-01T14:48:30.819Z,15.83
2018-06-01T14:50:56.849Z,15.72
2018-06-01T14:53:22.906Z,15.95
2018-06-01T14:55:48.952Z,16.06
2018-06-01T14:58:14.983Z,16.11
2018-06-01T15:00:41.033Z,15.76
2018-06-01T15:03:07.159Z,15.80
2018-06-01T15:05:33.194Z,15.81
2018-06-01T15:07:59.226Z,15.47
2018-06-01T15:10:25.324Z,15.73
2018-06-01T15:12:51.462Z,15.76
2018-06-01T15:15:17.532Z,15.76
2018-06-01T15:17:43.578Z,15.98
2018-06-01T15:20:09.690Z,15.75
2018-06-01T15:22:35.836Z,15.76
2018-06-01T15:25:01.926Z,15.71
2018-06-01T15:27:28.064Z,15.48
2018-06-01T15:29:54.125Z,15.27
2018-06-01T15:32:20.196Z,15.19
2018-06-01T15:34:46.203Z,15.42
2018-06-01T15:37:12.273Z,15.26
2018-06-01T15:39:38.400Z,15.12
2018-06-01T15:42:04.602Z,15.26
2018-06-01T15:44:30.695Z,15.39
2018-06-01T15:46:56.726Z,15.43
2018-06-01T15:49:22.752Z,15.43
2018-06-01T15:51:48.821Z,15.19
2018-06-01T15:54:14.866Z,15.16
2018-06-01T15:56:40.970Z,14.94
2018-06-01T15:59:07.083Z,15.07
2018-06-01T16:01:33.110Z,15.05
2018-06-01T16:03:59.146Z,14.99
2018-06-01T16:06:25.163Z,15.17
2018-06-01T16:08:52.171Z,15.03
2018-06-01T16:11:18.235Z,14.86
2018-06-01T16:13:44.282Z,14.90
2018-06-01T16:16:10.372Z,14.89
2018-06-01T16:18:36.389Z,14.75
2018-06-01T16:21:02.419Z,14.70
2018-06-01T16:23:28.450Z,14.73
2018-06-01T16:25:54.484Z,14.74
2018-06-01T16:28:20.498Z,14.67
2018-06-01T16:30:46.550Z,14.63
2018-06-01T16:33:12.568Z,14.71
2018-06-01T16:35:38.689Z,14.60
2018-06-01T16:38:04.691Z,14.71
2018-06-01T16:40:30.794Z,14.74
2018-06-01T16:42:56.817Z,14.84
2018-06-01T16:45:22.881Z,14.65
2018-06-01T16:47:48.987Z,14.73
2018-06-01T16:50:14.985Z,14.78
2018-06-01T16:52:41.196Z,14.62
2018-06-01T16:55:07.223Z,14.58
2018-06-01T16:57:33.358Z,14.52
2018-06-01T16:59:59.551Z,14.48
2018-06-01T17:02:25.584Z,14.62
2018-06-01T17:04:51.705Z,14.46
2018-06-01T17:07:17.840Z,14.51
2018-06-01T17:09:44.836Z,14.59
2018-06-01T17:12:10.949Z,14.42
2018-06-01T17:14:36.981Z,14.44
2018-06-01T17:17:03.038Z,14.41
2018-06-01T17:19:29.105Z,14.22
2018-06-01T17:21:55.250Z,14.51
2018-06-01T17:24:21.258Z,14.51
2018-06-01T17:26:47.277Z,14.62
2018-06-01T17:29:14.171Z,14.50
2018-06-01T17:31:40.195Z,14.44
2018-06-01T17:34:06.244Z,14.42
2018-06-01T17:36:32.270Z,14.36
2018-06-01T17:38:58.296Z,14.33
2018-06-01T17:41:24.338Z,14.33
2018-06-01T17:43:50.369Z,14.30
2018-06-01T17:46:16.395Z,14.30
2018-06-01T17:48:42.424Z,14.43
2018-06-01T17:51:08.438Z,14.32
2018-06-01T17:53:34.510Z,14.28
2018-06-01T17:56:00.598Z,14.34
2018-06-01T17:58:26.615Z,14.39
2018-06-01T18:00:52.630Z,14.33
2018-06-01T18:03:18.663Z,14.36
2018-06-01T18:05:44.783Z,14.45
2018-06-01T18:08:10.779Z,14.52
2018-06-01T18:10:37.390Z,14.62
2018-06-01T18:13:03.569Z,14.58
2018-06-01T18:15:29.578Z,14.56
2018-06-01T18:17:55.627Z,14.62
2018-06-01T18:20:21.728Z,14.66
2018-06-01T18:22:47.876Z,14.79
2018-06-01T18:25:13.980Z,14.83
2018-06-01T18:27:40.019Z,14.93
2018-06-01T18:30:06.078Z,14.92
2018-06-01T18:32:32.224Z,14.92
2018-06-01T18:34:58.258Z,14.95
2018-06-01T18:37:24.303Z,14.99
2018-06-01T18:39:50.285Z,14.98
2018-06-01T18:42:16.310Z,14.77
2018-06-01T18:44:42.399Z,14.76
2018-06-01T18:47:08.422Z,14.94
2018-06-01T18:49:34.456Z,14.93
2018-06-01T18:52:00.500Z,15.00
2018-06-01T18:54:26.517Z,15.05
2018-06-01T18:56:52.544Z,15.09
2018-06-01T18:59:18.588Z,15.05
2018-06-01T19:01:44.609Z,14.92
2018-06-01T19:04:10.632Z,15.03
2018-06-01T19:06:37.309Z,15.00
2018-06-01T19:09:03.560Z,14.98
2018-06-01T19:11:29.663Z,15.09
2018-06-01T19:13:55.707Z,14.93
2018-06-01T19:16:21.729Z,14.96
2018-06-01T19:18:47.952Z,15.04
2018-06-01T19:21:14.081Z,15.00
2018-06-01T19:23:40.106Z,14.98
2018-06-01T19:26:06.118Z,15.08
2018-06-01T19:28:32.228Z,14.98
2018-06-01T19:30:58.244Z,15.01
2018-06-01T19:33:24.273Z,14.90
2018-06-01T19:35:50.316Z,14.97
2018-06-01T19:38:16.359Z,14.93
2018-06-01T19:40:42.361Z,14.78
2018-06-01T19:43:08.407Z,14.72
2018-06-01T19:45:34.440Z,14.72
2018-06-01T19:48:00.479Z,14.69
2018-06-01T19:50:26.534Z,14.90
2018-06-01T19:52:52.561Z,14.96
2018-06-01T19:55:18.572Z,14.79
2018-06-01T19:57:44.700Z,14.82
2018-06-01T20:00:10.741Z,14.81
2018-06-01T20:02:36.766Z,14.86
2018-06-01T20:05:02.945Z,14.83
2018-06-01T20:07:28.956Z,14.81
2018-06-01T20:09:55.020Z,14.79
2018-06-01T20:12:21.085Z,14.75
2018-06-01T20:14:47.153Z,14.81
2018-06-01T20:17:13.201Z,14.94
2018-06-01T20:19:39.214Z,14.93
2018-06-01T20:22:05.411Z,15.02
2018-06-01T20:24:31.486Z,15.04
2018-06-01T20:26:57.515Z,15.09
2018-06-01T20:29:23.621Z,15.02
2018-06-01T20:31:49.802Z,15.01
2018-06-01T20:34:15.926Z,15.00
2018-06-01T20:36:41.938Z,15.00
2018-06-01T20:39:08.535Z,15.02
2018-06-01T20:41:34.599Z,15.14
2018-06-01T20:44:00.626Z,15.21
2018-06-01T20:46:26.693Z,15.12
2018-06-01T20:48:52.699Z,15.01
2018-06-01T20:51:18.762Z,14.89
2018-06-01T20:53:44.803Z,14.81
2018-06-01T20:56:11.193Z,14.94
2018-06-01T20:58:37.218Z,14.91
2018-06-01T21:01:03.247Z,14.96
2018-06-01T21:03:29.284Z,14.93
2018-06-01T21:05:55.310Z,14.96
2018-06-01T21:08:21.385Z,15.04
2018-06-01T21:10:47.539Z,15.10
2018-06-01T21:13:13.665Z,15.32
2018-06-01T21:15:39.677Z,15.15
2018-06-01T21:18:05.750Z,15.14
2018-06-01T21:20:31.882Z,15.21
2018-06-01T21:22:58.011Z,15.17
2018-06-01T21:25:24.050Z,15.25
2018-06-01T21:27:50.078Z,15.29
2018-06-01T21:30:16.190Z,15.30
2018-06-01T21:32:42.221Z,15.38
2018-06-01T21:35:08.275Z,15.28
2018-06-01T21:37:34.308Z,15.32
2018-06-01T21:40:00.429Z,15.37
2018-06-01T21:42:26.496Z,15.45
2018-06-01T21:44:52.493Z,15.44
2018-06-01T21:47:18.485Z,15.57
2018-06-01T21:49:44.502Z,15.48
2018-06-01T21:52:10.522Z,15.38
2018-06-01T21:54:36.636Z,15.33
2018-06-01T21:57:02.684Z,15.21
2018-06-01T21:59:28.696Z,15.24
2018-06-01T22:01:54.714Z,15.28
2018-06-01T22:04:20.733Z,15.27
2018-06-01T22:06:46.742Z,15.12
2018-06-01T22:09:12.807Z,15.21
2018-06-01T22:11:38.909Z,15.19
2018-06-01T22:14:05.004Z,15.27
2018-06-01T22:16:30.997Z,15.24
2018-06-01T22:18:57.025Z,15.36
2018-06-01T22:21:23.056Z,15.23
2018-06-01T22:23:49.140Z,15.28
2018-06-01T22:26:15.167Z,15.21
2018-06-01T22:28:41.197Z,15.16
2018-06-01T22:31:07.295Z,15.26
2018-06-01T22:33:33.331Z,15.20
2018-06-01T22:35:59.374Z,15.26
2018-06-01T22:38:25.498Z,15.41
2018-06-01T22:40:51.828Z,15.36
2018-06-01T22:43:17.938Z,15.34
2018-06-01T22:45:44.021Z,15.32
2018-06-01T22:48:10.069Z,15.28
2018-06-01T22:50:36.220Z,15.19
2018-06-01T22:53:03.000Z,15.29
2018-06-01T22:55:29.033Z,15.36
2018-06-01T22:57:55.049Z,15.37
2018-06-01T23:00:23.063Z,15.27
2018-06-01T23:02:49.097Z,15.17
2018-06-01T23:05:15.108Z,15.20
2018-06-01T23:07:41.153Z,15.19
2018-06-01T23:10:07.255Z,15.25
2018-06-01T23:12:33.387Z,15.13
2018-06-01T23:14:59.408Z,15.21
2018-06-01T23:17:25.478Z,15.22
2018-06-01T23:19:51.600Z,15.25
2018-06-01T23:22:17.685Z,15.23
2018-06-01T23:24:43.795Z,15.20
2018-06-01T23:27:09.804Z,15.29
2018-06-01T23:29:35.987Z,15.42
2018-06-01T23:32:02.058Z,15.52
2018-06-01T23:34:28.104Z,15.39
2018-06-01T23:36:54.144Z,15.37
2018-06-01T23:39:20.256Z,15.36
2018-06-01T23:41:46.402Z,15.44
2018-06-01T23:44:12.430Z,15.41
2018-06-01T23:46:38.452Z,15.43
2018-06-01T23:49:04.635Z,15.42
2018-06-01T23:51:30.674Z,15.39
2018-06-01T23:53:56.722Z,15.43
2018-06-01T23:56:22.745Z,15.44
2018-06-01T23:58:48.810Z,15.47
